Terminal Aerodrome Forecast
Issued by NWS Topeka, KS

Home | Current Version | Previous Version | Text Only | Print | Product List | Glossary Off
Versions: 1 2 3 4 5 6 7 8 9 10 11 12 13 14 15 16 17 18 19 20 21 22 23 24

000
FTUS43 KTOP 161400 AAA
TAFTOP
TAF AMD
KTOP 161432Z 1615/1712 32015G22KT P6SM OVC019
     FM162000 32008KT P6SM SCT025
     FM170000 34004KT P6SM FEW020 SCT200=

USA.gov is the U.S. government's official web portal to all federal, state and local government web resources and services.